sensor_id;sensor_type;location;lat;lon;timestamp;temperature;humidity
62904;DHT22;49000;50.698;13.322;2023-12-28T00:02:20;2.20;99.90
62904;DHT22;49000;50.698;13.322;2023-12-28T00:04:46;2.30;99.90
62904;DHT22;49000;50.698;13.322;2023-12-28T00:07:11;1.80;99.90
62904;DHT22;49000;50.698;13.322;2023-12-28T00:09:37;2.40;99.90
62904;DHT22;49000;50.698;13.322;2023-12-28T00:12:03;2.00;99.90
62904;DHT22;49000;50.698;13.322;2023-12-28T00:14:29;2.20;99.90
62904;DHT22;49000;50.698;13.322;2023-12-28T00:16:54;1.80;98.90
62904;DHT22;49000;50.698;13.322;2023-12-28T00:19:20;2.30;99.90
62904;DHT22;49000;50.698;13.322;2023-12-28T00:21:46;2.40;99.90
62904;DHT22;49000;50.698;13.322;2023-12-28T00:24:11;2.30;99.90
62904;DHT22;49000;50.698;13.322;2023-12-28T00:26:37;2.50;83.80
62904;DHT22;49000;50.698;13.322;2023-12-28T00:29:02;2.20;33.50
62904;DHT22;49000;50.698;13.322;2023-12-28T00:31:28;2.30;99.90
62904;DHT22;49000;50.698;13.322;2023-12-28T00:33:53;2.50;97.40
62904;DHT22;49000;50.698;13.322;2023-12-28T00:36:19;2.50;99.90
62904;DHT22;49000;50.698;13.322;2023-12-28T00:38:45;2.20;99.90
62904;DHT22;49000;50.698;13.322;2023-12-28T00:41:11;2.60;99.00
62904;DHT22;49000;50.698;13.322;2023-12-28T00:43:36;2.40;99.90
62904;DHT22;49000;50.698;13.322;2023-12-28T00:46:02;2.50;99.90
62904;DHT22;49000;50.698;13.322;2023-12-28T00:48:27;2.50;99.90
62904;DHT22;49000;50.698;13.322;2023-12-28T00:50:53;2.80;99.90
62904;DHT22;49000;50.698;13.322;2023-12-28T00:53:20;2.80;99.90
62904;DHT22;49000;50.698;13.322;2023-12-28T00:55:45;2.60;99.90
62904;DHT22;49000;50.698;13.322;2023-12-28T00:58:11;2.60;97.10
62904;DHT22;49000;50.698;13.322;2023-12-28T01:00:36;2.50;99.90
62904;DHT22;49000;50.698;13.322;2023-12-28T01:03:02;2.20;99.30
62904;DHT22;49000;50.698;13.322;2023-12-28T01:05:28;2.60;1.00
62904;DHT22;49000;50.698;13.322;2023-12-28T01:07:54;2.50;24.40
62904;DHT22;49000;50.698;13.322;2023-12-28T01:10:19;3.20;41.10
62904;DHT22;49000;50.698;13.322;2023-12-28T01:12:45;3.40;99.90
62904;DHT22;49000;50.698;13.322;2023-12-28T01:15:10;3.30;4.30
62904;DHT22;49000;50.698;13.322;2023-12-28T01:17:36;3.80;99.90
62904;DHT22;49000;50.698;13.322;2023-12-28T01:20:01;3.60;99.90
62904;DHT22;49000;50.698;13.322;2023-12-28T01:22:27;3.60;99.90
62904;DHT22;49000;50.698;13.322;2023-12-28T01:24:52;3.60;99.90
62904;DHT22;49000;50.698;13.322;2023-12-28T01:27:18;3.90;99.90
62904;DHT22;49000;50.698;13.322;2023-12-28T01:29:43;3.80;99.90
62904;DHT22;49000;50.698;13.322;2023-12-28T01:32:09;3.70;99.90
62904;DHT22;49000;50.698;13.322;2023-12-28T01:34:34;3.50;99.90
62904;DHT22;49000;50.698;13.322;2023-12-28T01:37:00;3.90;45.50
62904;DHT22;49000;50.698;13.322;2023-12-28T01:39:25;3.90;99.90
62904;DHT22;49000;50.698;13.322;2023-12-28T01:41:51;3.80;99.90
62904;DHT22;49000;50.698;13.322;2023-12-28T01:44:16;3.40;1.00
62904;DHT22;49000;50.698;13.322;2023-12-28T01:46:42;3.00;1.00
62904;DHT22;49000;50.698;13.322;2023-12-28T01:49:07;3.40;5.90
62904;DHT22;49000;50.698;13.322;2023-12-28T01:51:33;3.10;5.00
62904;DHT22;49000;50.698;13.322;2023-12-28T01:54:00;3.30;1.00
62904;DHT22;49000;50.698;13.322;2023-12-28T01:56:25;3.30;92.10
62904;DHT22;49000;50.698;13.322;2023-12-28T01:58:52;3.30;1.00
62904;DHT22;49000;50.698;13.322;2023-12-28T02:01:18;4.40;1.00
62904;DHT22;49000;50.698;13.322;2023-12-28T02:03:45;4.30;1.00
62904;DHT22;49000;50.698;13.322;2023-12-28T02:06:11;4.80;1.00
62904;DHT22;49000;50.698;13.322;2023-12-28T02:08:38;5.00;1.00
62904;DHT22;49000;50.698;13.322;2023-12-28T02:11:03;4.70;1.00
62904;DHT22;49000;50.698;13.322;2023-12-28T02:13:29;5.30;99.90
62904;DHT22;49000;50.698;13.322;2023-12-28T02:16:01;5.50;99.90
62904;DHT22;49000;50.698;13.322;2023-12-28T02:18:38;5.30;99.90
62904;DHT22;49000;50.698;13.322;2023-12-28T02:21:04;5.80;99.90
62904;DHT22;49000;50.698;13.322;2023-12-28T02:23:32;6.00;99.90
62904;DHT22;49000;50.698;13.322;2023-12-28T02:25:58;6.60;99.90
62904;DHT22;49000;50.698;13.322;2023-12-28T02:28:23;6.80;99.90
62904;DHT22;49000;50.698;13.322;2023-12-28T02:30:49;6.90;99.90
62904;DHT22;49000;50.698;13.322;2023-12-28T02:36:09;7.10;99.90
62904;DHT22;49000;50.698;13.322;2023-12-28T02:38:37;7.00;99.90
62904;DHT22;49000;50.698;13.322;2023-12-28T02:41:03;6.90;99.90
62904;DHT22;49000;50.698;13.322;2023-12-28T02:43:30;7.10;99.90
62904;DHT22;49000;50.698;13.322;2023-12-28T02:45:55;7.20;99.90
62904;DHT22;49000;50.698;13.322;2023-12-28T02:48:21;7.20;99.90
62904;DHT22;49000;50.698;13.322;2023-12-28T02:50:46;7.00;99.90
62904;DHT22;49000;50.698;13.322;2023-12-28T02:53:12;6.90;99.90
62904;DHT22;49000;50.698;13.322;2023-12-28T02:55:38;6.90;99.90
62904;DHT22;49000;50.698;13.322;2023-12-28T02:58:03;7.00;99.90
62904;DHT22;49000;50.698;13.322;2023-12-28T03:00:29;7.00;99.90
62904;DHT22;49000;50.698;13.322;2023-12-28T03:02:54;6.80;99.90
62904;DHT22;49000;50.698;13.322;2023-12-28T03:05:20;6.70;99.90
62904;DHT22;49000;50.698;13.322;2023-12-28T03:07:45;6.50;99.90
62904;DHT22;49000;50.698;13.322;2023-12-28T03:10:12;6.70;99.90
62904;DHT22;49000;50.698;13.322;2023-12-28T03:12:37;6.70;99.90
62904;DHT22;49000;50.698;13.322;2023-12-28T03:15:04;6.90;99.90
62904;DHT22;49000;50.698;13.322;2023-12-28T03:17:29;6.80;99.90
62904;DHT22;49000;50.698;13.322;2023-12-28T03:19:56;6.80;99.90
62904;DHT22;49000;50.698;13.322;2023-12-28T03:22:22;6.90;99.90
62904;DHT22;49000;50.698;13.322;2023-12-28T03:24:48;6.90;99.90
62904;DHT22;49000;50.698;13.322;2023-12-28T03:27:14;6.90;99.90
62904;DHT22;49000;50.698;13.322;2023-12-28T03:29:41;7.00;99.90
62904;DHT22;49000;50.698;13.322;2023-12-28T03:32:07;7.00;99.90
62904;DHT22;49000;50.698;13.322;2023-12-28T03:34:33;7.00;99.90
62904;DHT22;49000;50.698;13.322;2023-12-28T03:36:59;6.90;99.90
62904;DHT22;49000;50.698;13.322;2023-12-28T03:39:24;7.00;99.90
62904;DHT22;49000;50.698;13.322;2023-12-28T03:41:50;6.80;99.90
62904;DHT22;49000;50.698;13.322;2023-12-28T03:44:15;6.90;99.90
62904;DHT22;49000;50.698;13.322;2023-12-28T03:46:41;6.70;99.90
62904;DHT22;49000;50.698;13.322;2023-12-28T03:49:06;6.70;99.90
62904;DHT22;49000;50.698;13.322;2023-12-28T03:51:32;6.90;99.90
62904;DHT22;49000;50.698;13.322;2023-12-28T03:53:57;7.00;99.90
62904;DHT22;49000;50.698;13.322;2023-12-28T03:56:27;7.00;99.90
62904;DHT22;49000;50.698;13.322;2023-12-28T03:58:53;7.10;99.90
62904;DHT22;49000;50.698;13.322;2023-12-28T04:01:21;7.10;99.90
62904;DHT22;49000;50.698;13.322;2023-12-28T04:03:47;6.90;99.90
62904;DHT22;49000;50.698;13.322;2023-12-28T04:06:13;7.00;99.90
62904;DHT22;49000;50.698;13.322;2023-12-28T04:08:39;6.90;99.90
62904;DHT22;49000;50.698;13.322;2023-12-28T04:11:05;6.90;99.90
62904;DHT22;49000;50.698;13.322;2023-12-28T04:13:31;6.70;99.90
62904;DHT22;49000;50.698;13.322;2023-12-28T04:15:56;7.10;99.90
62904;DHT22;49000;50.698;13.322;2023-12-28T04:18:22;7.10;99.90
62904;DHT22;49000;50.698;13.322;2023-12-28T04:20:47;7.30;99.90
62904;DHT22;49000;50.698;13.322;2023-12-28T04:23:14;7.40;99.90
62904;DHT22;49000;50.698;13.322;2023-12-28T04:25:39;7.30;99.90
62904;DHT22;49000;50.698;13.322;2023-12-28T04:28:06;7.30;99.90
62904;DHT22;49000;50.698;13.322;2023-12-28T04:30:31;7.40;99.90
62904;DHT22;49000;50.698;13.322;2023-12-28T04:32:57;7.50;99.90
62904;DHT22;49000;50.698;13.322;2023-12-28T04:35:22;7.50;99.90
62904;DHT22;49000;50.698;13.322;2023-12-28T04:37:47;7.60;99.90
62904;DHT22;49000;50.698;13.322;2023-12-28T04:40:13;7.50;99.90
62904;DHT22;49000;50.698;13.322;2023-12-28T04:42:40;7.60;99.90
62904;DHT22;49000;50.698;13.322;2023-12-28T04:45:06;7.70;99.90
62904;DHT22;49000;50.698;13.322;2023-12-28T04:47:32;7.70;99.90
62904;DHT22;49000;50.698;13.322;2023-12-28T04:49:58;7.70;99.90
62904;DHT22;49000;50.698;13.322;2023-12-28T04:52:23;7.80;99.90
62904;DHT22;49000;50.698;13.322;2023-12-28T04:54:48;7.80;99.90
62904;DHT22;49000;50.698;13.322;2023-12-28T04:57:14;7.80;99.90
62904;DHT22;49000;50.698;13.322;2023-12-28T04:59:40;7.70;99.90
62904;DHT22;49000;50.698;13.322;2023-12-28T05:02:06;7.70;99.90
62904;DHT22;49000;50.698;13.322;2023-12-28T05:04:31;7.70;99.90
62904;DHT22;49000;50.698;13.322;2023-12-28T05:06:57;7.60;99.90
62904;DHT22;49000;50.698;13.322;2023-12-28T05:09:22;7.20;99.90
62904;DHT22;49000;50.698;13.322;2023-12-28T05:11:48;7.60;99.90
62904;DHT22;49000;50.698;13.322;2023-12-28T05:14:13;7.60;99.90
62904;DHT22;49000;50.698;13.322;2023-12-28T05:16:39;7.60;99.90
62904;DHT22;49000;50.698;13.322;2023-12-28T05:19:04;7.50;99.90
62904;DHT22;49000;50.698;13.322;2023-12-28T05:21:30;7.60;99.90
62904;DHT22;49000;50.698;13.322;2023-12-28T05:23:55;7.70;99.90
62904;DHT22;49000;50.698;13.322;2023-12-28T05:26:21;7.70;1.00
62904;DHT22;49000;50.698;13.322;2023-12-28T05:28:48;7.80;99.90
62904;DHT22;49000;50.698;13.322;2023-12-28T05:31:13;7.80;1.00
62904;DHT22;49000;50.698;13.322;2023-12-28T05:33:39;7.80;1.00
62904;DHT22;49000;50.698;13.322;2023-12-28T05:36:05;8.00;1.00
62904;DHT22;49000;50.698;13.322;2023-12-28T05:38:31;8.20;1.00
62904;DHT22;49000;50.698;13.322;2023-12-28T05:40:56;8.20;1.00
62904;DHT22;49000;50.698;13.322;2023-12-28T05:43:22;8.30;99.90
62904;DHT22;49000;50.698;13.322;2023-12-28T05:45:47;8.30;1.00
62904;DHT22;49000;50.698;13.322;2023-12-28T05:48:13;8.30;1.00
62904;DHT22;49000;50.698;13.322;2023-12-28T05:50:38;8.30;99.90
62904;DHT22;49000;50.698;13.322;2023-12-28T05:53:05;8.40;1.00
62904;DHT22;49000;50.698;13.322;2023-12-28T05:55:30;8.50;1.00
62904;DHT22;49000;50.698;13.322;2023-12-28T05:57:56;8.50;99.90
62904;DHT22;49000;50.698;13.322;2023-12-28T06:00:21;8.50;1.00
62904;DHT22;49000;50.698;13.322;2023-12-28T06:02:47;8.50;99.90
62904;DHT22;49000;50.698;13.322;2023-12-28T06:05:16;8.40;1.00
62904;DHT22;49000;50.698;13.322;2023-12-28T06:07:42;8.40;1.00
62904;DHT22;49000;50.698;13.322;2023-12-28T06:10:08;8.40;1.00
62904;DHT22;49000;50.698;13.322;2023-12-28T06:12:33;8.40;1.00
62904;DHT22;49000;50.698;13.322;2023-12-28T06:14:59;8.40;1.00
62904;DHT22;49000;50.698;13.322;2023-12-28T06:17:24;8.40;1.00
62904;DHT22;49000;50.698;13.322;2023-12-28T06:19:50;8.40;1.00
62904;DHT22;49000;50.698;13.322;2023-12-28T06:22:16;8.30;1.00
62904;DHT22;49000;50.698;13.322;2023-12-28T06:24:41;8.30;1.00
62904;DHT22;49000;50.698;13.322;2023-12-28T06:27:06;8.30;1.00
62904;DHT22;49000;50.698;13.322;2023-12-28T06:29:32;8.30;1.00
62904;DHT22;49000;50.698;13.322;2023-12-28T06:31:57;8.30;1.00
62904;DHT22;49000;50.698;13.322;2023-12-28T06:34:23;8.30;1.00
62904;DHT22;49000;50.698;13.322;2023-12-28T06:36:48;8.30;1.00
62904;DHT22;49000;50.698;13.322;2023-12-28T06:39:14;8.30;1.00
62904;DHT22;49000;50.698;13.322;2023-12-28T06:41:39;8.30;1.00
62904;DHT22;49000;50.698;13.322;2023-12-28T06:44:05;8.30;1.00
62904;DHT22;49000;50.698;13.322;2023-12-28T06:46:30;8.20;1.00
62904;DHT22;49000;50.698;13.322;2023-12-28T06:48:55;8.20;1.00
62904;DHT22;49000;50.698;13.322;2023-12-28T06:51:23;8.20;1.00
62904;DHT22;49000;50.698;13.322;2023-12-28T06:53:48;8.10;1.00
62904;DHT22;49000;50.698;13.322;2023-12-28T06:56:14;8.10;1.00
62904;DHT22;49000;50.698;13.322;2023-12-28T06:58:40;8.00;1.00
62904;DHT22;49000;50.698;13.322;2023-12-28T07:01:06;8.00;1.00
62904;DHT22;49000;50.698;13.322;2023-12-28T07:03:32;8.00;1.00
62904;DHT22;49000;50.698;13.322;2023-12-28T07:05:58;7.90;1.00
62904;DHT22;49000;50.698;13.322;2023-12-28T07:08:24;7.90;1.00
62904;DHT22;49000;50.698;13.322;2023-12-28T07:10:49;7.90;1.00
62904;DHT22;49000;50.698;13.322;2023-12-28T07:13:15;7.90;1.00
62904;DHT22;49000;50.698;13.322;2023-12-28T07:15:40;7.90;1.00
62904;DHT22;49000;50.698;13.322;2023-12-28T07:18:06;7.80;1.00
62904;DHT22;49000;50.698;13.322;2023-12-28T07:20:31;7.80;1.00
62904;DHT22;49000;50.698;13.322;2023-12-28T07:22:57;7.80;1.00
62904;DHT22;49000;50.698;13.322;2023-12-28T07:25:22;7.70;1.00
62904;DHT22;49000;50.698;13.322;2023-12-28T07:27:48;7.70;1.00
62904;DHT22;49000;50.698;13.322;2023-12-28T07:30:13;7.70;1.00
62904;DHT22;49000;50.698;13.322;2023-12-28T07:32:39;7.60;1.00
62904;DHT22;49000;50.698;13.322;2023-12-28T07:35:05;7.60;1.00
62904;DHT22;49000;50.698;13.322;2023-12-28T07:37:30;7.60;1.00
62904;DHT22;49000;50.698;13.322;2023-12-28T07:39:56;7.50;1.00
62904;DHT22;49000;50.698;13.322;2023-12-28T07:42:22;7.50;1.00
62904;DHT22;49000;50.698;13.322;2023-12-28T07:44:48;7.50;1.00
62904;DHT22;49000;50.698;13.322;2023-12-28T07:47:13;7.50;1.00
62904;DHT22;49000;50.698;13.322;2023-12-28T07:49:40;7.50;1.00
62904;DHT22;49000;50.698;13.322;2023-12-28T07:52:05;7.50;1.00
62904;DHT22;49000;50.698;13.322;2023-12-28T07:54:31;7.50;1.00
62904;DHT22;49000;50.698;13.322;2023-12-28T07:56:56;7.50;1.00
62904;DHT22;49000;50.698;13.322;2023-12-28T07:59:22;7.50;1.00
62904;DHT22;49000;50.698;13.322;2023-12-28T08:01:47;7.50;1.00
62904;DHT22;49000;50.698;13.322;2023-12-28T08:04:13;7.60;1.00
62904;DHT22;49000;50.698;13.322;2023-12-28T08:06:38;7.60;1.00
62904;DHT22;49000;50.698;13.322;2023-12-28T08:09:04;7.60;1.00
62904;DHT22;49000;50.698;13.322;2023-12-28T08:11:29;7.60;1.00
62904;DHT22;49000;50.698;13.322;2023-12-28T08:13:55;7.60;1.00
62904;DHT22;49000;50.698;13.322;2023-12-28T08:16:20;7.20;1.00
62904;DHT22;49000;50.698;13.322;2023-12-28T08:18:46;7.60;1.00
62904;DHT22;49000;50.698;13.322;2023-12-28T08:21:12;7.60;1.00
62904;DHT22;49000;50.698;13.322;2023-12-28T08:23:37;7.60;1.00
62904;DHT22;49000;50.698;13.322;2023-12-28T08:26:03;7.30;1.00
62904;DHT22;49000;50.698;13.322;2023-12-28T08:28:29;7.70;1.00
62904;DHT22;49000;50.698;13.322;2023-12-28T08:30:56;7.60;1.00
62904;DHT22;49000;50.698;13.322;2023-12-28T08:33:21;7.20;1.00
62904;DHT22;49000;50.698;13.322;2023-12-28T08:35:47;7.70;1.00
62904;DHT22;49000;50.698;13.322;2023-12-28T08:38:12;7.60;1.00
62904;DHT22;49000;50.698;13.322;2023-12-28T08:40:38;7.70;1.00
62904;DHT22;49000;50.698;13.322;2023-12-28T08:43:03;7.70;1.00
62904;DHT22;49000;50.698;13.322;2023-12-28T08:45:29;7.70;1.00
62904;DHT22;49000;50.698;13.322;2023-12-28T08:47:55;7.70;1.00
62904;DHT22;49000;50.698;13.322;2023-12-28T08:50:22;7.70;1.00
62904;DHT22;49000;50.698;13.322;2023-12-28T08:52:48;7.70;1.00
62904;DHT22;49000;50.698;13.322;2023-12-28T08:55:14;7.70;1.00
62904;DHT22;49000;50.698;13.322;2023-12-28T08:57:39;7.80;1.00
62904;DHT22;49000;50.698;13.322;2023-12-28T09:00:07;7.80;1.00
62904;DHT22;49000;50.698;13.322;2023-12-28T09:02:33;7.80;1.00
62904;DHT22;49000;50.698;13.322;2023-12-28T09:04:59;7.80;1.00
62904;DHT22;49000;50.698;13.322;2023-12-28T09:07:24;7.90;1.00
62904;DHT22;49000;50.698;13.322;2023-12-28T09:09:50;7.90;1.00
62904;DHT22;49000;50.698;13.322;2023-12-28T09:12:15;8.00;1.00
62904;DHT22;49000;50.698;13.322;2023-12-28T09:14:41;8.00;1.00
62904;DHT22;49000;50.698;13.322;2023-12-28T09:17:07;8.00;1.00
62904;DHT22;49000;50.698;13.322;2023-12-28T09:19:32;8.00;1.00
62904;DHT22;49000;50.698;13.322;2023-12-28T09:21:58;8.00;1.00
62904;DHT22;49000;50.698;13.322;2023-12-28T09:24:23;8.00;1.00
62904;DHT22;49000;50.698;13.322;2023-12-28T09:26:48;8.00;1.00
62904;DHT22;49000;50.698;13.322;2023-12-28T09:29:14;8.00;1.00
62904;DHT22;49000;50.698;13.322;2023-12-28T09:31:39;8.00;1.00
62904;DHT22;49000;50.698;13.322;2023-12-28T09:34:05;8.00;1.00
62904;DHT22;49000;50.698;13.322;2023-12-28T09:36:31;8.10;1.00
62904;DHT22;49000;50.698;13.322;2023-12-28T09:38:56;8.10;1.00
62904;DHT22;49000;50.698;13.322;2023-12-28T09:41:26;8.10;1.00
62904;DHT22;49000;50.698;13.322;2023-12-28T09:44:05;8.20;1.00
62904;DHT22;49000;50.698;13.322;2023-12-28T09:46:32;8.20;1.00
62904;DHT22;49000;50.698;13.322;2023-12-28T09:48:58;8.20;1.00
62904;DHT22;49000;50.698;13.322;2023-12-28T09:51:24;8.20;1.00
62904;DHT22;49000;50.698;13.322;2023-12-28T09:53:50;8.20;1.00
62904;DHT22;49000;50.698;13.322;2023-12-28T09:56:16;8.20;1.00
62904;DHT22;49000;50.698;13.322;2023-12-28T09:58:43;8.20;1.00
62904;DHT22;49000;50.698;13.322;2023-12-28T10:01:10;8.20;99.90
62904;DHT22;49000;50.698;13.322;2023-12-28T10:03:36;8.20;1.00
62904;DHT22;49000;50.698;13.322;2023-12-28T10:06:01;8.10;1.00
62904;DHT22;49000;50.698;13.322;2023-12-28T10:08:27;8.10;1.00
62904;DHT22;49000;50.698;13.322;2023-12-28T10:10:52;8.00;1.00
62904;DHT22;49000;50.698;13.322;2023-12-28T10:13:20;8.00;1.00
62904;DHT22;49000;50.698;13.322;2023-12-28T10:15:47;8.00;1.00
62904;DHT22;49000;50.698;13.322;2023-12-28T10:18:13;8.00;99.90
62904;DHT22;49000;50.698;13.322;2023-12-28T10:20:39;8.00;99.90
62904;DHT22;49000;50.698;13.322;2023-12-28T10:23:04;8.00;1.00
62904;DHT22;49000;50.698;13.322;2023-12-28T10:25:32;8.00;1.00
62904;DHT22;49000;50.698;13.322;2023-12-28T10:27:58;8.00;1.00
62904;DHT22;49000;50.698;13.322;2023-12-28T10:30:29;8.00;1.00
62904;DHT22;49000;50.698;13.322;2023-12-28T10:32:55;7.70;1.00
62904;DHT22;49000;50.698;13.322;2023-12-28T10:35:20;8.00;1.00
62904;DHT22;49000;50.698;13.322;2023-12-28T10:37:46;8.00;1.00
62904;DHT22;49000;50.698;13.322;2023-12-28T10:40:15;7.70;1.00
62904;DHT22;49000;50.698;13.322;2023-12-28T10:42:49;8.00;1.00
62904;DHT22;49000;50.698;13.322;2023-12-28T10:45:16;8.00;1.00
62904;DHT22;49000;50.698;13.322;2023-12-28T10:48:05;7.50;1.00
62904;DHT22;49000;50.698;13.322;2023-12-28T10:50:39;8.00;1.00
62904;DHT22;49000;50.698;13.322;2023-12-28T10:55:40;7.90;1.00
62904;DHT22;49000;50.698;13.322;2023-12-28T10:58:17;8.00;1.00
62904;DHT22;49000;50.698;13.322;2023-12-28T11:00:51;7.90;1.00
62904;DHT22;49000;50.698;13.322;2023-12-28T11:03:23;8.00;1.00
62904;DHT22;49000;50.698;13.322;2023-12-28T11:05:51;8.00;1.00
62904;DHT22;49000;50.698;13.322;2023-12-28T11:08:19;8.00;1.00
62904;DHT22;49000;50.698;13.322;2023-12-28T11:10:47;8.00;1.00
62904;DHT22;49000;50.698;13.322;2023-12-28T11:13:13;8.00;1.00
62904;DHT22;49000;50.698;13.322;2023-12-28T11:15:41;8.00;1.00
62904;DHT22;49000;50.698;13.322;2023-12-28T11:18:06;8.00;1.00
62904;DHT22;49000;50.698;13.322;2023-12-28T11:20:32;8.00;1.00
62904;DHT22;49000;50.698;13.322;2023-12-28T11:22:58;8.00;1.00
62904;DHT22;49000;50.698;13.322;2023-12-28T11:25:31;8.10;1.00
62904;DHT22;49000;50.698;13.322;2023-12-28T11:27:56;8.10;1.00
62904;DHT22;49000;50.698;13.322;2023-12-28T11:30:26;8.00;1.00
62904;DHT22;49000;50.698;13.322;2023-12-28T11:32:56;8.10;1.00
62904;DHT22;49000;50.698;13.322;2023-12-28T11:35:21;8.10;1.00
62904;DHT22;49000;50.698;13.322;2023-12-28T11:37:51;8.10;1.00
62904;DHT22;49000;50.698;13.322;2023-12-28T11:40:18;8.10;1.00
62904;DHT22;49000;50.698;13.322;2023-12-28T11:42:49;8.10;1.00
62904;DHT22;49000;50.698;13.322;2023-12-28T11:45:17;8.10;1.00
62904;DHT22;49000;50.698;13.322;2023-12-28T11:47:42;8.00;1.00
62904;DHT22;49000;50.698;13.322;2023-12-28T11:50:08;8.00;1.00
62904;DHT22;49000;50.698;13.322;2023-12-28T11:52:34;8.00;1.00
62904;DHT22;49000;50.698;13.322;2023-12-28T11:55:00;7.70;1.00
62904;DHT22;49000;50.698;13.322;2023-12-28T11:57:26;8.10;1.00
62904;DHT22;49000;50.698;13.322;2023-12-28T11:59:59;8.10;1.00
62904;DHT22;49000;50.698;13.322;2023-12-28T12:02:25;8.10;1.00
62904;DHT22;49000;50.698;13.322;2023-12-28T12:04:53;8.10;1.00
62904;DHT22;49000;50.698;13.322;2023-12-28T12:07:18;8.20;1.00
62904;DHT22;49000;50.698;13.322;2023-12-28T12:09:44;8.10;1.00
62904;DHT22;49000;50.698;13.322;2023-12-28T12:12:10;8.10;1.00
62904;DHT22;49000;50.698;13.322;2023-12-28T12:14:35;8.10;1.00
62904;DHT22;49000;50.698;13.322;2023-12-28T12:17:01;8.20;1.00
62904;DHT22;49000;50.698;13.322;2023-12-28T12:19:27;8.20;1.00
62904;DHT22;49000;50.698;13.322;2023-12-28T12:21:53;8.20;1.00
62904;DHT22;49000;50.698;13.322;2023-12-28T12:24:20;8.20;1.00
62904;DHT22;49000;50.698;13.322;2023-12-28T12:26:46;8.30;1.00
62904;DHT22;49000;50.698;13.322;2023-12-28T12:29:12;8.30;1.00
62904;DHT22;49000;50.698;13.322;2023-12-28T12:31:37;8.20;1.00
62904;DHT22;49000;50.698;13.322;2023-12-28T12:34:06;8.20;1.00
62904;DHT22;49000;50.698;13.322;2023-12-28T12:36:32;8.20;1.00
62904;DHT22;49000;50.698;13.322;2023-12-28T12:38:57;8.10;1.00
62904;DHT22;49000;50.698;13.322;2023-12-28T12:41:23;7.80;1.00
62904;DHT22;49000;50.698;13.322;2023-12-28T12:43:48;8.10;1.00
62904;DHT22;49000;50.698;13.322;2023-12-28T12:46:14;8.10;1.00
62904;DHT22;49000;50.698;13.322;2023-12-28T12:48:40;8.00;1.00
62904;DHT22;49000;50.698;13.322;2023-12-28T12:51:06;8.10;1.00
62904;DHT22;49000;50.698;13.322;2023-12-28T12:53:35;8.00;1.00
62904;DHT22;49000;50.698;13.322;2023-12-28T12:56:03;8.00;1.00
62904;DHT22;49000;50.698;13.322;2023-12-28T12:58:29;8.10;1.00
62904;DHT22;49000;50.698;13.322;2023-12-28T13:00:56;8.00;1.00
62904;DHT22;49000;50.698;13.322;2023-12-28T13:03:21;8.00;1.00
62904;DHT22;49000;50.698;13.322;2023-12-28T13:05:47;8.00;1.00
62904;DHT22;49000;50.698;13.322;2023-12-28T13:08:13;8.20;1.00
62904;DHT22;49000;50.698;13.322;2023-12-28T13:10:39;7.90;1.00
62904;DHT22;49000;50.698;13.322;2023-12-28T13:13:08;7.80;1.00
62904;DHT22;49000;50.698;13.322;2023-12-28T13:15:34;7.90;1.00
62904;DHT22;49000;50.698;13.322;2023-12-28T13:17:59;7.90;1.00
62904;DHT22;49000;50.698;13.322;2023-12-28T13:20:25;8.00;1.00
62904;DHT22;49000;50.698;13.322;2023-12-28T13:22:50;7.90;1.00
62904;DHT22;49000;50.698;13.322;2023-12-28T13:25:16;8.00;1.00
62904;DHT22;49000;50.698;13.322;2023-12-28T13:27:41;7.80;1.00
62904;DHT22;49000;50.698;13.322;2023-12-28T13:30:07;7.80;1.00
62904;DHT22;49000;50.698;13.322;2023-12-28T13:32:33;7.80;1.00
62904;DHT22;49000;50.698;13.322;2023-12-28T13:34:59;7.80;1.00
62904;DHT22;49000;50.698;13.322;2023-12-28T13:37:24;7.80;1.00
62904;DHT22;49000;50.698;13.322;2023-12-28T13:39:50;7.60;1.00
62904;DHT22;49000;50.698;13.322;2023-12-28T13:42:16;7.90;1.00
62904;DHT22;49000;50.698;13.322;2023-12-28T13:44:41;7.90;1.00
62904;DHT22;49000;50.698;13.322;2023-12-28T13:47:08;7.90;1.00
62904;DHT22;49000;50.698;13.322;2023-12-28T13:49:34;7.90;1.00
62904;DHT22;49000;50.698;13.322;2023-12-28T13:52:00;7.90;1.00
62904;DHT22;49000;50.698;13.322;2023-12-28T13:54:25;7.80;1.00
62904;DHT22;49000;50.698;13.322;2023-12-28T13:56:51;8.00;1.00
62904;DHT22;49000;50.698;13.322;2023-12-28T13:59:22;7.80;1.00
62904;DHT22;49000;50.698;13.322;2023-12-28T14:01:48;7.90;1.00
62904;DHT22;49000;50.698;13.322;2023-12-28T14:04:13;7.90;1.00
62904;DHT22;49000;50.698;13.322;2023-12-28T14:06:39;7.90;1.00
62904;DHT22;49000;50.698;13.322;2023-12-28T14:09:04;8.00;1.00
62904;DHT22;49000;50.698;13.322;2023-12-28T14:11:30;8.00;1.00
62904;DHT22;49000;50.698;13.322;2023-12-28T14:13:55;8.10;1.00
62904;DHT22;49000;50.698;13.322;2023-12-28T14:16:21;8.00;1.00
62904;DHT22;49000;50.698;13.322;2023-12-28T14:18:46;8.00;1.00
62904;DHT22;49000;50.698;13.322;2023-12-28T14:21:14;7.90;1.00
62904;DHT22;49000;50.698;13.322;2023-12-28T14:23:40;7.80;1.00
62904;DHT22;49000;50.698;13.322;2023-12-28T14:26:13;7.70;1.00
62904;DHT22;49000;50.698;13.322;2023-12-28T14:28:40;7.60;1.00
62904;DHT22;49000;50.698;13.322;2023-12-28T14:31:08;7.60;1.00
62904;DHT22;49000;50.698;13.322;2023-12-28T14:33:34;7.60;1.00
62904;DHT22;49000;50.698;13.322;2023-12-28T14:36:01;7.60;1.00
62904;DHT22;49000;50.698;13.322;2023-12-28T14:38:28;7.40;1.00
62904;DHT22;49000;50.698;13.322;2023-12-28T14:40:53;7.60;1.00
62904;DHT22;49000;50.698;13.322;2023-12-28T14:43:19;7.60;1.00
62904;DHT22;49000;50.698;13.322;2023-12-28T14:45:45;7.50;1.00
62904;DHT22;49000;50.698;13.322;2023-12-28T14:48:12;7.50;1.00
62904;DHT22;49000;50.698;13.322;2023-12-28T14:50:37;7.50;1.00
62904;DHT22;49000;50.698;13.322;2023-12-28T14:53:03;7.20;1.00
62904;DHT22;49000;50.698;13.322;2023-12-28T14:55:28;7.50;1.00
62904;DHT22;49000;50.698;13.322;2023-12-28T14:57:54;7.10;1.00
62904;DHT22;49000;50.698;13.322;2023-12-28T15:00:19;7.30;1.00
62904;DHT22;49000;50.698;13.322;2023-12-28T15:02:45;7.30;1.00
62904;DHT22;49000;50.698;13.322;2023-12-28T15:05:10;7.20;1.00
62904;DHT22;49000;50.698;13.322;2023-12-28T15:07:38;7.00;1.00
62904;DHT22;49000;50.698;13.322;2023-12-28T15:10:04;6.90;1.00
62904;DHT22;49000;50.698;13.322;2023-12-28T15:12:30;7.00;1.00
62904;DHT22;49000;50.698;13.322;2023-12-28T15:14:55;6.90;1.00
62904;DHT22;49000;50.698;13.322;2023-12-28T15:17:21;6.80;1.00
62904;DHT22;49000;50.698;13.322;2023-12-28T15:19:48;6.60;1.00
62904;DHT22;49000;50.698;13.322;2023-12-28T15:22:13;6.50;1.00
62904;DHT22;49000;50.698;13.322;2023-12-28T15:24:39;6.60;1.00
62904;DHT22;49000;50.698;13.322;2023-12-28T15:27:05;6.30;1.00
62904;DHT22;49000;50.698;13.322;2023-12-28T15:29:32;6.10;1.00
62904;DHT22;49000;50.698;13.322;2023-12-28T15:31:58;6.10;1.00
62904;DHT22;49000;50.698;13.322;2023-12-28T15:34:23;6.00;1.00
62904;DHT22;49000;50.698;13.322;2023-12-28T15:36:49;5.60;1.00
62904;DHT22;49000;50.698;13.322;2023-12-28T15:39:14;6.00;1.00